createdAt,value
2023-01-23T00:01:12.783Z,7.95
2023-01-23T00:03:39.707Z,7.82
2023-01-23T00:06:13.279Z,7.84
2023-01-23T00:08:41.409Z,7.79
2023-01-23T00:11:10.935Z,7.88
2023-01-23T00:13:38.360Z,7.68
2023-01-23T00:16:17.239Z,7.83
2023-01-23T00:18:44.984Z,7.66
2023-01-23T00:21:14.133Z,7.83
2023-01-23T00:23:46.948Z,7.65
2023-01-23T00:26:16.779Z,7.76
2023-01-23T00:28:46.271Z,7.64
2023-01-23T00:31:19.584Z,7.65
2023-01-23T00:33:48.905Z,7.59
2023-01-23T00:36:15.989Z,7.65
2023-01-23T00:38:43.459Z,7.57
2023-01-23T00:41:10.409Z,7.61
2023-01-23T00:43:37.301Z,7.60
2023-01-23T00:46:04.705Z,7.63
2023-01-23T00:48:33.113Z,7.67
2023-01-23T00:51:00.004Z,7.59
2023-01-23T00:53:27.575Z,7.54
2023-01-23T00:55:55.575Z,7.55
2023-01-23T00:58:22.527Z,7.50
2023-01-23T01:00:49.483Z,7.55
2023-01-23T01:03:17.694Z,7.50
2023-01-23T01:05:44.573Z,7.42
2023-01-23T01:08:11.611Z,7.41
2023-01-23T01:10:42.035Z,7.42
2023-01-23T01:13:09.880Z,7.41
2023-01-23T01:15:38.124Z,7.51
2023-01-23T01:18:05.225Z,7.50
2023-01-23T01:20:32.100Z,7.47
2023-01-23T01:23:00.702Z,7.51
2023-01-23T01:25:27.796Z,7.56
2023-01-23T01:27:56.346Z,7.51
2023-01-23T01:30:25.522Z,7.53
2023-01-23T01:32:52.484Z,7.54
2023-01-23T01:35:20.444Z,7.58
2023-01-23T01:37:48.304Z,7.49
2023-01-23T01:40:22.898Z,7.45
2023-01-23T01:42:57.371Z,7.58
2023-01-23T01:45:59.363Z,7.62
2023-01-23T01:49:05.636Z,7.64
2023-01-23T01:51:39.794Z,7.57
2023-01-23T01:54:12.265Z,7.58
2023-01-23T01:56:45.236Z,7.52
2023-01-23T01:59:13.331Z,7.37
2023-01-23T02:01:42.759Z,7.29
2023-01-23T02:04:10.147Z,7.26
2023-01-23T02:06:37.213Z,7.36
2023-01-23T02:09:12.028Z,7.33
2023-01-23T02:11:39.242Z,7.36
2023-01-23T02:14:06.651Z,7.30
2023-01-23T02:16:41.019Z,7.38
2023-01-23T02:19:47.745Z,7.35
2023-01-23T02:22:34.441Z,7.26
2023-01-23T02:25:29.063Z,7.29
2023-01-23T02:27:56.144Z,7.29
2023-01-23T02:30:23.864Z,7.32
2023-01-23T02:32:53.495Z,7.33
2023-01-23T02:35:28.873Z,7.44
2023-01-23T02:38:04.176Z,7.31
2023-01-23T02:40:36.769Z,7.12
2023-01-23T02:43:07.435Z,7.11
2023-01-23T02:45:35.907Z,7.14
2023-01-23T02:48:06.173Z,6.99
2023-01-23T02:50:33.133Z,7.04
2023-01-23T02:53:00.476Z,7.03
2023-01-23T02:55:31.792Z,7.05
2023-01-23T02:58:20.368Z,7.00
2023-01-23T03:00:47.701Z,6.79
2023-01-23T03:03:16.153Z,6.80
2023-01-23T03:05:43.102Z,6.86
2023-01-23T03:08:11.043Z,6.82
2023-01-23T03:10:37.919Z,6.80
2023-01-23T03:13:07.461Z,6.77
2023-01-23T03:28:31.324Z,6.17
2023-01-23T03:30:58.814Z,6.29
2023-01-23T03:33:25.928Z,6.38
2023-01-23T03:35:52.860Z,6.30
2023-01-23T03:38:19.932Z,6.34
2023-01-23T03:41:08.841Z,6.28
2023-01-23T03:43:36.198Z,6.39
2023-01-23T03:46:03.097Z,6.24
2023-01-23T03:48:31.292Z,6.26
2023-01-23T03:50:58.257Z,6.25
2023-01-23T03:53:25.277Z,6.21
2023-01-23T03:55:53.138Z,6.16
2023-01-23T03:58:20.535Z,6.13
2023-01-23T04:00:48.528Z,6.07
2023-01-23T04:03:16.277Z,6.10
2023-01-23T04:05:43.114Z,6.08
2023-01-23T04:08:10.027Z,6.14
2023-01-23T04:10:37.045Z,6.22
2023-01-23T04:13:10.477Z,6.10
2023-01-23T04:15:37.893Z,6.11
2023-01-23T04:18:06.739Z,6.12
2023-01-23T04:20:33.790Z,6.15
2023-01-23T04:23:00.675Z,6.14
2023-01-23T04:25:29.476Z,6.03
2023-01-23T04:27:56.666Z,6.02
2023-01-23T04:30:23.526Z,6.06
2023-01-23T04:32:51.381Z,6.01
2023-01-23T04:35:19.783Z,6.00
2023-01-23T04:37:46.943Z,5.97
2023-01-23T04:40:14.147Z,5.98
2023-01-23T04:42:51.752Z,5.99
2023-01-23T04:45:30.738Z,6.04
2023-01-23T04:48:15.937Z,6.05
2023-01-23T04:50:43.395Z,6.11
2023-01-23T04:53:11.382Z,6.18
2023-01-23T04:55:38.932Z,6.22
2023-01-23T04:58:11.517Z,6.10
2023-01-23T05:00:38.890Z,6.05
2023-01-23T05:03:06.882Z,6.14
2023-01-23T05:05:33.897Z,5.95
2023-01-23T05:08:01.581Z,5.84
2023-01-23T05:10:30.089Z,5.89
2023-01-23T05:13:01.669Z,6.00
2023-01-23T05:15:30.801Z,5.94
2023-01-23T05:17:58.037Z,5.86
2023-01-23T05:20:25.010Z,5.94
2023-01-23T05:22:55.275Z,5.93
2023-01-23T05:25:31.644Z,5.90
2023-01-23T05:28:00.212Z,5.94
2023-01-23T05:30:27.526Z,5.89
2023-01-23T05:33:06.757Z,5.81
2023-01-23T05:35:33.711Z,6.00
2023-01-23T05:38:01.491Z,6.09
2023-01-23T05:40:28.445Z,6.05
2023-01-23T05:43:17.334Z,5.99
2023-01-23T05:46:20.099Z,5.98
2023-01-23T05:48:51.902Z,5.97
2023-01-23T05:51:20.607Z,6.02
2023-01-23T05:53:47.964Z,6.00
2023-01-23T05:56:16.433Z,5.98
2023-01-23T05:59:05.387Z,5.87
2023-01-23T06:01:55.410Z,5.83
2023-01-23T06:04:40.976Z,5.85
2023-01-23T06:07:20.224Z,5.83
2023-01-23T06:09:51.369Z,5.79
2023-01-23T06:12:18.293Z,5.85
2023-01-23T06:14:45.166Z,5.84
2023-01-23T06:17:12.781Z,5.88
2023-01-23T06:19:39.658Z,5.84
2023-01-23T06:22:06.871Z,5.78
2023-01-23T06:24:45.751Z,5.83
2023-01-23T06:27:12.732Z,5.88
2023-01-23T06:29:39.620Z,5.95
2023-01-23T06:32:07.551Z,6.08
2023-01-23T06:34:36.709Z,5.88
2023-01-23T06:37:05.757Z,5.90
2023-01-23T06:39:34.343Z,5.99
2023-01-23T06:42:02.760Z,5.93
2023-01-23T06:44:29.799Z,5.87
2023-01-23T06:46:56.904Z,5.90
2023-01-23T06:49:25.123Z,5.89
2023-01-23T06:51:52.953Z,5.92
2023-01-23T06:54:20.108Z,6.05
2023-01-23T06:56:47.402Z,5.99
2023-01-23T06:59:14.706Z,5.93
2023-01-23T07:01:43.351Z,6.04
2023-01-23T07:04:10.313Z,6.06
2023-01-23T07:06:39.085Z,6.16
2023-01-23T07:09:06.256Z,6.02
2023-01-23T07:11:33.764Z,6.10
2023-01-23T07:14:01.049Z,6.05
2023-01-23T07:16:29.379Z,6.19
2023-01-23T07:19:01.721Z,6.17
2023-01-23T07:21:32.639Z,6.11
2023-01-23T07:23:59.542Z,6.14
2023-01-23T07:26:26.431Z,6.11
2023-01-23T07:28:53.790Z,6.19
2023-01-23T07:31:20.816Z,6.16
2023-01-23T07:33:48.168Z,6.05
2023-01-23T07:36:15.192Z,5.92
2023-01-23T07:38:42.089Z,5.98
2023-01-23T07:41:09.327Z,6.05
2023-01-23T07:43:36.210Z,6.16
2023-01-23T07:46:03.787Z,6.25
2023-01-23T07:48:30.690Z,6.24
2023-01-23T07:51:01.611Z,6.22
2023-01-23T07:53:28.676Z,6.18
2023-01-23T07:55:55.607Z,6.34
2023-01-23T07:58:22.708Z,6.57
2023-01-23T08:00:49.689Z,6.37
2023-01-23T08:03:16.764Z,6.35
2023-01-23T08:05:49.370Z,6.29
2023-01-23T08:08:16.536Z,6.31
2023-01-23T08:10:43.985Z,6.27
2023-01-23T08:13:11.827Z,6.18
2023-01-23T08:15:39.040Z,6.33
2023-01-23T08:18:05.965Z,6.40
2023-01-23T08:20:32.916Z,6.41
2023-01-23T08:23:02.280Z,6.34
2023-01-23T08:25:29.927Z,6.25
2023-01-23T08:27:57.450Z,6.14
2023-01-23T08:30:24.528Z,6.10
2023-01-23T08:32:51.589Z,5.92
2023-01-23T08:35:18.570Z,6.19
2023-01-23T08:37:45.623Z,6.22
2023-01-23T08:40:13.012Z,6.26
2023-01-23T08:42:41.212Z,6.26
2023-01-23T08:45:08.986Z,6.33
2023-01-23T08:47:36.993Z,6.18
2023-01-23T08:50:05.247Z,6.22
2023-01-23T08:52:32.155Z,6.27
2023-01-23T08:54:59.215Z,6.21
2023-01-23T08:57:26.333Z,6.22
2023-01-23T08:59:53.264Z,6.35
2023-01-23T09:02:22.046Z,6.40
2023-01-23T09:04:49.413Z,6.30
2023-01-23T09:07:16.375Z,6.19
2023-01-23T09:09:43.307Z,6.16
2023-01-23T09:12:10.208Z,5.94
2023-01-23T09:14:38.575Z,5.94
2023-01-23T09:17:06.277Z,5.98
2023-01-23T09:19:33.520Z,5.97
2023-01-23T09:22:00.390Z,6.02
2023-01-23T09:24:27.261Z,5.99
2023-01-23T09:26:54.234Z,6.21
2023-01-23T09:29:21.119Z,6.30
2023-01-23T09:31:48.138Z,6.38
2023-01-23T09:34:17.015Z,6.09
2023-01-23T09:36:44.463Z,6.24
2023-01-23T09:39:12.184Z,6.22
2023-01-23T09:41:40.443Z,6.22
2023-01-23T09:44:31.900Z,6.22
2023-01-23T09:47:07.026Z,5.84
2023-01-23T09:49:33.794Z,5.92
2023-01-23T09:52:06.425Z,6.08
2023-01-23T09:54:46.706Z,5.91
2023-01-23T09:57:36.863Z,5.84
2023-01-23T10:00:15.715Z,5.84
2023-01-23T10:02:44.631Z,5.87
2023-01-23T10:05:17.025Z,5.88
2023-01-23T10:08:02.032Z,5.87
2023-01-23T10:10:40.382Z,5.75
2023-01-23T10:13:11.416Z,5.86
2023-01-23T10:15:57.209Z,5.94
2023-01-23T10:18:32.828Z,5.91
2023-01-23T10:21:21.033Z,5.62
2023-01-23T10:24:08.953Z,5.66
2023-01-23T10:26:46.477Z,5.74
2023-01-23T10:29:24.280Z,5.64
2023-01-23T10:31:57.373Z,5.59
2023-01-23T10:34:34.914Z,5.63
2023-01-23T10:37:22.335Z,5.71
2023-01-23T10:39:55.036Z,5.71
2023-01-23T10:42:25.695Z,5.64
2023-01-23T10:44:53.169Z,5.74
2023-01-23T10:47:32.792Z,5.72
2023-01-23T10:50:00.320Z,5.61
2023-01-23T10:52:35.325Z,5.59
2023-01-23T10:55:04.332Z,5.50
2023-01-23T10:57:46.316Z,5.63
2023-01-23T11:00:30.439Z,5.46
2023-01-23T11:03:22.539Z,5.60
2023-01-23T11:06:00.788Z,5.61
2023-01-23T11:08:29.575Z,5.53
2023-01-23T11:11:14.823Z,5.68
2023-01-23T11:13:47.277Z,5.62
2023-01-23T11:16:19.636Z,5.56
2023-01-23T11:18:54.730Z,5.57
2023-01-23T11:21:28.725Z,5.62
2023-01-23T11:24:41.483Z,5.76
2023-01-23T11:27:28.513Z,5.52
2023-01-23T11:30:14.075Z,5.40
2023-01-23T11:33:00.776Z,5.31
2023-01-23T11:35:50.098Z,5.14
2023-01-23T11:38:30.636Z,5.20
2023-01-23T11:40:58.117Z,5.31
2023-01-23T11:43:25.096Z,5.33
2023-01-23T11:46:02.080Z,5.35
2023-01-23T11:48:34.968Z,5.38
2023-01-23T11:51:20.647Z,5.45
2023-01-23T11:53:52.176Z,5.41
2023-01-23T11:56:49.133Z,5.34
2023-01-23T11:59:43.182Z,5.28
2023-01-23T12:02:13.012Z,5.26
2023-01-23T12:04:52.052Z,5.31
2023-01-23T12:07:21.537Z,5.24
2023-01-23T12:10:07.151Z,5.14
2023-01-23T12:13:14.798Z,5.01
2023-01-23T12:15:44.694Z,4.95
2023-01-23T12:18:26.823Z,4.95
2023-01-23T12:21:06.018Z,4.94
2023-01-23T12:24:08.119Z,4.93
2023-01-23T12:26:41.245Z,4.92
2023-01-23T12:29:46.632Z,4.84
2023-01-23T12:32:51.321Z,4.81
2023-01-23T12:35:33.169Z,4.85
2023-01-23T12:38:23.332Z,5.00
2023-01-23T12:40:56.221Z,4.90
2023-01-23T12:43:39.573Z,4.98
2023-01-23T12:46:11.961Z,4.97
2023-01-23T12:48:43.310Z,4.91
2023-01-23T12:51:21.208Z,4.88
2023-01-23T12:53:52.701Z,4.81
2023-01-23T12:56:33.396Z,4.84
2023-01-23T12:59:11.177Z,4.76
2023-01-23T13:02:05.781Z,4.81
2023-01-23T13:04:57.054Z,4.80
2023-01-23T13:07:42.198Z,4.70
2023-01-23T13:10:51.876Z,4.62
2023-01-23T13:13:20.538Z,4.83
2023-01-23T13:16:12.908Z,4.78
2023-01-23T13:18:59.320Z,4.73
2023-01-23T13:21:45.712Z,4.66
2023-01-23T13:24:59.695Z,4.77
2023-01-23T13:27:55.846Z,4.66
2023-01-23T13:30:26.188Z,4.62
2023-01-23T13:33:01.406Z,4.71
2023-01-23T13:35:40.223Z,4.72
2023-01-23T13:38:22.329Z,4.60
2023-01-23T13:41:04.900Z,4.63
2023-01-23T13:43:52.964Z,4.59
2023-01-23T14:22:01.047Z,4.26
2023-01-23T14:24:42.607Z,4.04
2023-01-23T14:27:21.801Z,4.16
2023-01-23T14:30:00.676Z,4.03
2023-01-23T14:32:33.914Z,3.82
2023-01-23T14:35:01.709Z,3.77
2023-01-23T14:37:31.462Z,3.82
2023-01-23T14:40:09.736Z,3.56
2023-01-23T14:42:39.326Z,3.37
2023-01-23T14:45:10.789Z,3.40
2023-01-23T14:47:45.461Z,3.53
2023-01-23T14:50:20.046Z,3.49
2023-01-23T14:52:57.740Z,3.55
2023-01-23T14:55:29.735Z,3.51
2023-01-23T14:58:01.528Z,3.31
2023-01-23T15:00:29.445Z,3.33
2023-01-23T15:02:56.777Z,3.17
2023-01-23T15:05:30.545Z,3.20
2023-01-23T15:08:18.343Z,3.14
2023-01-23T15:10:49.124Z,3.12
2023-01-23T15:14:01.587Z,3.16
2023-01-23T15:30:37.042Z,2.64
2023-01-23T15:33:20.633Z,2.75
2023-01-23T15:35:47.623Z,2.90
2023-01-23T15:38:17.908Z,2.93
2023-01-23T15:40:44.793Z,2.92
2023-01-23T15:43:18.786Z,2.88
2023-01-23T15:45:46.295Z,2.80
2023-01-23T15:48:13.270Z,2.77
2023-01-23T15:50:40.222Z,2.75
2023-01-23T15:53:14.416Z,2.83
2023-01-23T15:55:41.481Z,2.74
2023-01-23T15:58:14.013Z,2.74
2023-01-23T16:00:41.108Z,2.76
2023-01-23T16:03:08.081Z,2.77
2023-01-23T16:05:37.362Z,2.64
2023-01-23T16:08:06.500Z,2.63
2023-01-23T16:10:38.715Z,2.51
2023-01-23T16:13:07.713Z,2.47
2023-01-23T16:15:35.894Z,2.39
2023-01-23T16:18:04.705Z,2.31
2023-01-23T16:20:40.561Z,2.37
2023-01-23T16:23:15.269Z,2.40
2023-01-23T16:25:45.491Z,2.25
2023-01-23T16:28:15.318Z,2.23
2023-01-23T16:30:42.926Z,2.31
2023-01-23T16:33:10.046Z,2.35
2023-01-23T16:35:37.361Z,2.40
2023-01-23T16:38:05.316Z,2.41
2023-01-23T16:40:33.141Z,2.40
2023-01-23T16:43:02.812Z,2.27
2023-01-23T16:45:32.230Z,2.26
2023-01-23T16:47:59.216Z,2.20
2023-01-23T16:50:34.661Z,2.27
2023-01-23T16:53:04.504Z,2.09
2023-01-23T16:55:44.582Z,2.08
2023-01-23T16:58:19.515Z,2.18
2023-01-23T17:00:46.879Z,2.18
2023-01-23T17:03:22.856Z,2.22
2023-01-23T17:05:49.809Z,2.16
2023-01-23T17:08:21.694Z,2.16
2023-01-23T17:10:52.063Z,2.24
2023-01-23T17:13:21.460Z,2.26
2023-01-23T17:15:52.464Z,2.19
2023-01-23T17:18:28.137Z,2.18
2023-01-23T17:20:56.038Z,2.19
2023-01-23T17:23:24.121Z,2.25
2023-01-23T17:26:00.448Z,2.09
2023-01-23T17:28:27.614Z,2.02
2023-01-23T17:30:55.781Z,2.01
2023-01-23T17:33:31.740Z,1.92
2023-01-23T17:36:00.728Z,1.87
2023-01-23T17:38:34.603Z,1.90
2023-01-23T17:41:01.921Z,1.97
2023-01-23T17:43:29.554Z,1.97
2023-01-23T17:45:56.636Z,2.04
2023-01-23T17:48:27.950Z,1.96
2023-01-23T17:50:55.304Z,1.94
2023-01-23T17:53:23.926Z,1.92
2023-01-23T17:55:52.715Z,1.84
2023-01-23T17:58:20.852Z,1.80
2023-01-23T18:00:51.153Z,1.82
2023-01-23T18:03:21.924Z,1.78
2023-01-23T18:05:48.870Z,1.77
2023-01-23T18:08:18.192Z,1.77
2023-01-23T18:10:47.207Z,1.84
2023-01-23T18:14:02.579Z,1.83
2023-01-23T18:16:36.420Z,1.85
2023-01-23T18:19:21.572Z,1.85
2023-01-23T18:21:53.856Z,1.82
2023-01-23T18:24:26.937Z,1.85
2023-01-23T18:27:12.655Z,1.83
2023-01-23T18:30:16.848Z,1.92
2023-01-23T18:33:07.967Z,1.89
2023-01-23T18:35:57.162Z,1.73
2023-01-23T18:38:52.173Z,1.71
2023-01-23T18:41:24.809Z,1.69
2023-01-23T18:44:24.643Z,1.65
2023-01-23T18:46:51.665Z,1.76
2023-01-23T18:49:32.479Z,1.71
2023-01-23T18:52:11.505Z,1.74
2023-01-23T18:54:47.202Z,1.72
2023-01-23T18:57:26.036Z,1.63
2023-01-23T19:00:01.877Z,1.59
2023-01-23T19:02:45.240Z,1.60
2023-01-23T19:05:15.998Z,1.55
2023-01-23T19:07:45.235Z,1.60
2023-01-23T19:10:21.537Z,1.70
2023-01-23T19:13:12.823Z,1.65
2023-01-23T19:16:10.952Z,1.77
2023-01-23T19:18:59.717Z,1.68
2023-01-23T19:21:34.512Z,1.56
2023-01-23T19:24:03.599Z,1.71
2023-01-23T19:26:36.056Z,1.66
2023-01-23T19:29:19.970Z,1.66
2023-01-23T19:32:03.631Z,1.63
2023-01-23T19:34:31.812Z,1.71
2023-01-23T19:36:58.686Z,1.66
2023-01-23T19:39:25.752Z,1.68
2023-01-23T19:41:53.489Z,1.65
2023-01-23T19:44:24.358Z,1.58
2023-01-23T19:46:51.996Z,1.72
2023-01-23T19:49:19.164Z,1.65
2023-01-23T19:51:46.498Z,1.65
2023-01-23T19:54:15.646Z,1.61
2023-01-23T19:56:42.716Z,1.55
2023-01-23T19:59:09.998Z,1.54
2023-01-23T20:01:49.714Z,1.58
2023-01-23T20:04:20.819Z,1.66
2023-01-23T20:06:54.289Z,1.59
2023-01-23T20:09:21.529Z,1.60
2023-01-23T20:11:49.117Z,1.59
2023-01-23T20:14:16.280Z,1.58
2023-01-23T20:16:43.699Z,1.54
2023-01-23T20:19:15.319Z,1.43
2023-01-23T20:21:42.666Z,1.44
2023-01-23T20:24:09.666Z,1.36
2023-01-23T20:26:36.756Z,1.37
2023-01-23T20:29:04.424Z,1.43
2023-01-23T20:31:32.352Z,1.35
2023-01-23T20:33:59.479Z,1.41
2023-01-23T20:36:26.292Z,1.44
2023-01-23T20:38:53.312Z,1.49
2023-01-23T20:41:21.025Z,1.54
2023-01-23T20:43:48.445Z,1.57
2023-01-23T20:46:16.536Z,1.52
2023-01-23T20:48:45.347Z,1.50
2023-01-23T20:51:14.214Z,1.56
2023-01-23T20:53:41.612Z,1.48
2023-01-23T20:56:17.197Z,1.50
2023-01-23T20:59:04.954Z,1.56
2023-01-23T21:01:57.540Z,1.56
2023-01-23T21:04:27.402Z,1.51
2023-01-23T21:06:54.614Z,1.40
2023-01-23T21:09:21.908Z,1.39
2023-01-23T21:11:50.670Z,1.42
2023-01-23T21:14:17.943Z,1.41
2023-01-23T21:16:44.870Z,1.36
2023-01-23T21:19:11.831Z,1.42
2023-01-23T21:21:39.320Z,1.46
2023-01-23T21:24:07.154Z,1.38
2023-01-23T21:26:35.083Z,1.38
2023-01-23T21:29:02.300Z,1.45
2023-01-23T21:31:33.161Z,1.36
2023-01-23T21:34:01.680Z,1.34
2023-01-23T21:36:28.768Z,1.28
2023-01-23T21:38:56.129Z,1.23
2023-01-23T21:41:23.227Z,1.23
2023-01-23T21:43:50.323Z,1.25
2023-01-23T21:46:17.188Z,1.30
2023-01-23T21:48:44.177Z,1.17
2023-01-23T21:51:13.985Z,1.14
2023-01-23T21:53:42.632Z,1.16
2023-01-23T21:56:10.940Z,1.09
2023-01-23T21:58:38.949Z,1.07
2023-01-23T22:01:26.708Z,1.05
2023-01-23T22:03:53.634Z,1.04
2023-01-23T22:06:20.531Z,1.18
2023-01-23T22:08:47.686Z,1.08
2023-01-23T22:11:14.726Z,1.09
2023-01-23T22:13:41.684Z,1.07
2023-01-23T22:16:08.884Z,1.04
2023-01-23T22:18:35.765Z,1.10
2023-01-23T22:21:04.683Z,1.07
2023-01-23T22:23:32.479Z,1.16
2023-01-23T22:26:07.642Z,1.08
2023-01-23T22:28:35.670Z,1.01
2023-01-23T22:31:07.799Z,1.04
2023-01-23T22:33:40.492Z,1.13
2023-01-23T22:36:09.766Z,1.01
2023-01-23T22:38:36.609Z,0.89
2023-01-23T22:41:05.657Z,0.91
2023-01-23T22:43:34.021Z,0.93
2023-01-23T22:46:08.282Z,0.93
2023-01-23T22:48:35.797Z,0.91
2023-01-23T22:51:08.721Z,0.99
2023-01-23T22:53:35.616Z,1.08
2023-01-23T22:56:06.298Z,1.01
2023-01-23T22:58:34.076Z,1.03
2023-01-23T23:01:01.516Z,0.97
2023-01-23T23:03:34.908Z,0.96
2023-01-23T23:06:08.457Z,0.86
2023-01-23T23:08:35.745Z,0.86
2023-01-23T23:11:03.660Z,0.84
2023-01-23T23:13:33.159Z,0.80
2023-01-23T23:16:05.270Z,0.78
2023-01-23T23:18:32.782Z,0.79
2023-01-23T23:21:06.232Z,0.80
2023-01-23T23:23:33.069Z,0.79
2023-01-23T23:26:00.475Z,0.79
2023-01-23T23:28:28.276Z,0.77
2023-01-23T23:30:55.167Z,0.75
2023-01-23T23:33:22.689Z,0.78
2023-01-23T23:35:49.805Z,0.78
2023-01-23T23:38:17.093Z,0.76
2023-01-23T23:40:43.994Z,0.81
2023-01-23T23:43:10.899Z,0.72
2023-01-23T23:45:39.089Z,0.68
2023-01-23T23:48:06.189Z,0.67
2023-01-23T23:50:33.743Z,0.74
2023-01-23T23:53:00.720Z,0.74
2023-01-23T23:55:27.581Z,0.71
2023-01-23T23:57:54.446Z,0.63
